createdAt,value
2016-09-10T00:00:02.823Z,0.00
2016-09-10T00:01:02.588Z,0.00
2016-09-10T00:02:03.102Z,0.00
2016-09-10T00:03:03.618Z,0.00
2016-09-10T00:04:04.132Z,0.00
2016-09-10T00:05:04.646Z,0.00
2016-09-10T00:06:05.311Z,0.00
2016-09-10T00:07:05.675Z,0.00
2016-09-10T00:08:06.339Z,0.00
2016-09-10T00:09:06.850Z,0.00
2016-09-10T00:10:07.216Z,0.00
2016-09-10T00:11:07.884Z,0.00
2016-09-10T00:12:08.253Z,0.00
2016-09-10T00:13:08.909Z,0.00
2016-09-10T00:14:09.280Z,0.00
2016-09-10T00:15:09.793Z,0.00
2016-09-10T00:16:10.604Z,0.00
2016-09-10T00:17:10.991Z,0.00
2016-09-10T00:18:11.482Z,0.00
2016-09-10T00:19:12.058Z,0.00
2016-09-10T00:20:12.383Z,0.00
2016-09-10T00:21:12.879Z,0.00
2016-09-10T00:22:13.395Z,0.00
2016-09-10T00:23:13.929Z,0.00
2016-09-10T00:24:14.570Z,0.00
2016-09-10T00:25:15.090Z,0.00
2016-09-10T00:26:15.596Z,0.00
2016-09-10T00:27:15.965Z,0.00
2016-09-10T00:28:16.491Z,0.00
2016-09-10T00:29:16.997Z,0.00
2016-09-10T00:30:17.545Z,0.00
2016-09-10T00:31:18.052Z,0.00
2016-09-10T00:32:18.556Z,0.00
2016-09-10T00:33:19.070Z,0.00
2016-09-10T00:34:19.608Z,0.00
2016-09-10T00:35:20.115Z,0.00
2016-09-10T00:36:20.621Z,0.00
2016-09-10T00:37:21.130Z,0.00
2016-09-10T00:38:21.647Z,0.00
2016-09-10T00:39:22.160Z,0.00
2016-09-10T00:40:22.827Z,0.00
2016-09-10T00:41:23.187Z,0.00
2016-09-10T00:42:23.703Z,0.00
2016-09-10T00:43:24.225Z,0.00
2016-09-10T00:44:24.728Z,0.00
2016-09-10T00:45:25.249Z,0.00
2016-09-10T00:46:25.756Z,0.00
2016-09-10T00:47:27.545Z,0.00
2016-09-10T00:48:26.799Z,0.00
2016-09-10T00:49:27.299Z,0.00
2016-09-10T00:50:27.811Z,0.00
2016-09-10T00:51:28.397Z,0.00
2016-09-10T00:52:28.842Z,0.00
2016-09-10T00:53:29.353Z,0.00
2016-09-10T00:54:29.873Z,0.00
2016-09-10T00:55:30.387Z,0.00
2016-09-10T00:56:30.897Z,0.00
2016-09-10T00:57:31.569Z,0.00
2016-09-10T00:58:31.927Z,0.00
2016-09-10T00:59:32.602Z,0.00
2016-09-10T01:00:33.114Z,0.00
2016-09-10T01:01:33.466Z,0.00
2016-09-10T01:02:34.133Z,0.00
2016-09-10T01:03:34.499Z,0.00
2016-09-10T01:04:35.166Z,0.00
2016-09-10T01:05:35.532Z,0.00
2016-09-10T01:06:36.042Z,0.00
2016-09-10T01:07:36.562Z,0.00
2016-09-10T01:08:37.078Z,0.00
2016-09-10T01:09:37.595Z,0.00
2016-09-10T01:10:38.108Z,0.00
2016-09-10T01:11:38.623Z,0.00
2016-09-10T01:12:39.144Z,0.00
2016-09-10T01:13:39.655Z,0.00
2016-09-10T01:14:40.194Z,0.00
2016-09-10T01:15:40.855Z,0.00
2016-09-10T01:16:41.206Z,0.00
2016-09-10T01:17:41.712Z,0.00
2016-09-10T01:18:42.226Z,0.00
2016-09-10T01:19:42.744Z,0.00
2016-09-10T01:20:43.267Z,0.00
2016-09-10T01:21:44.074Z,0.00
2016-09-10T01:22:44.436Z,0.00
2016-09-10T01:23:44.797Z,0.00
2016-09-10T01:24:45.465Z,0.00
2016-09-10T01:25:45.826Z,0.00
2016-09-10T01:26:46.342Z,0.00
2016-09-10T01:27:46.863Z,0.00
2016-09-10T01:28:47.375Z,0.00
2016-09-10T01:29:47.885Z,0.00
2016-09-10T01:30:48.717Z,0.00
2016-09-10T01:31:48.910Z,0.00
2016-09-10T01:32:49.428Z,0.00
2016-09-10T01:33:49.955Z,0.00
2016-09-10T01:34:50.495Z,0.00
2016-09-10T01:35:50.961Z,0.00
2016-09-10T01:36:53.130Z,0.00
2016-09-10T01:37:51.988Z,0.00
2016-09-10T01:38:52.829Z,0.00
2016-09-10T01:39:53.171Z,0.00
2016-09-10T01:40:53.609Z,0.00
2016-09-10T01:41:54.199Z,0.00
2016-09-10T01:42:54.568Z,0.00
2016-09-10T01:43:55.104Z,0.00
2016-09-10T01:44:55.596Z,0.00
2016-09-10T01:45:56.111Z,0.00
2016-09-10T01:46:56.628Z,0.00
2016-09-10T01:47:57.147Z,0.00
2016-09-10T01:48:57.663Z,0.00
2016-09-10T01:49:58.180Z,0.00
2016-09-10T01:50:58.684Z,0.00
2016-09-10T01:51:59.201Z,0.00
2016-09-10T01:52:59.725Z,0.00
2016-09-10T01:54:00.242Z,0.00
2016-09-10T01:55:00.791Z,0.00
2016-09-10T01:56:01.710Z,0.00
2016-09-10T01:57:02.113Z,0.00
2016-09-10T01:58:02.434Z,0.00
2016-09-10T01:59:02.946Z,0.00
2016-09-10T02:00:03.408Z,0.00
2016-09-10T02:01:03.828Z,0.00
2016-09-10T02:02:04.369Z,0.00
2016-09-10T02:03:04.849Z,0.00
2016-09-10T02:04:05.543Z,0.00
2016-09-10T02:05:05.920Z,0.00
2016-09-10T02:06:06.391Z,0.00
2016-09-10T02:07:06.907Z,0.00
2016-09-10T02:08:07.417Z,0.00
2016-09-10T02:09:08.099Z,0.00
2016-09-10T02:10:08.759Z,0.00
2016-09-10T02:11:08.961Z,0.00
2016-09-10T02:12:09.478Z,0.00
2016-09-10T02:13:10.159Z,0.00
2016-09-10T02:14:10.510Z,0.00
2016-09-10T02:15:11.025Z,0.00
2016-09-10T02:16:11.542Z,0.00
2016-09-10T02:17:12.056Z,0.00
2016-09-10T02:18:12.569Z,0.00
2016-09-10T02:19:13.243Z,0.00
2016-09-10T02:20:13.907Z,0.00
2016-09-10T02:21:14.427Z,0.00
2016-09-10T02:22:14.669Z,0.00
2016-09-10T02:23:15.309Z,0.00
2016-09-10T02:24:15.701Z,0.00
2016-09-10T02:25:16.233Z,0.00
2016-09-10T02:26:16.700Z,0.00
2016-09-10T02:27:17.368Z,0.00
2016-09-10T02:28:17.881Z,0.00
2016-09-10T02:29:18.250Z,0.00
2016-09-10T02:30:18.912Z,0.00
2016-09-10T02:31:19.302Z,0.00
2016-09-10T02:32:19.855Z,0.00
2016-09-10T02:33:20.311Z,0.00
2016-09-10T02:34:21.012Z,0.00
2016-09-10T02:35:21.338Z,0.00
2016-09-10T02:36:21.858Z,0.00
2016-09-10T02:37:22.370Z,0.00
2016-09-10T02:38:23.196Z,0.00
2016-09-10T02:39:23.546Z,0.00
2016-09-10T02:40:24.060Z,0.00
2016-09-10T02:41:24.424Z,0.00
2016-09-10T02:42:24.939Z,0.00
2016-09-10T02:43:25.603Z,0.00
2016-09-10T02:44:25.989Z,0.00
2016-09-10T02:45:27.979Z,0.00
2016-09-10T02:46:27.006Z,0.00
2016-09-10T02:47:27.507Z,0.00
2016-09-10T02:48:28.020Z,0.00
2016-09-10T02:49:28.537Z,0.00
2016-09-10T02:50:29.070Z,0.00
2016-09-10T02:51:32.575Z,0.00
2016-09-10T02:52:30.292Z,0.00
2016-09-10T02:53:30.604Z,0.00
2016-09-10T02:54:31.140Z,0.00
2016-09-10T02:55:31.620Z,0.00
2016-09-10T02:56:32.137Z,0.00
2016-09-10T02:57:32.658Z,0.00
2016-09-10T02:58:33.341Z,0.00
2016-09-10T02:59:33.695Z,0.00
2016-09-10T03:00:34.222Z,0.00
2016-09-10T03:01:34.718Z,0.00
2016-09-10T03:02:35.381Z,0.00
2016-09-10T03:03:35.741Z,0.00
2016-09-10T03:04:36.260Z,0.00
2016-09-10T03:05:36.784Z,0.00
2016-09-10T03:06:37.286Z,0.00
2016-09-10T03:07:37.798Z,0.00
2016-09-10T03:08:38.314Z,0.00
2016-09-10T03:09:38.830Z,0.00
2016-09-10T03:10:39.346Z,0.00
2016-09-10T03:11:40.172Z,0.00
2016-09-10T03:12:40.415Z,0.00
2016-09-10T03:13:41.079Z,0.00
2016-09-10T03:14:41.412Z,0.00
2016-09-10T03:15:42.970Z,0.00
2016-09-10T03:16:42.434Z,0.00
2016-09-10T03:17:42.953Z,0.00
2016-09-10T03:18:43.464Z,0.00
2016-09-10T03:19:44.186Z,0.00
2016-09-10T03:20:44.494Z,0.00
2016-09-10T03:21:45.030Z,0.00
2016-09-10T03:22:45.666Z,0.00
2016-09-10T03:23:46.030Z,0.00
2016-09-10T03:24:46.559Z,0.00
2016-09-10T03:25:47.069Z,0.00
2016-09-10T03:26:47.570Z,0.00
2016-09-10T03:27:48.082Z,0.00
2016-09-10T03:28:48.600Z,0.00
2016-09-10T03:29:49.124Z,0.00
2016-09-10T03:30:50.090Z,0.00
2016-09-10T03:31:50.159Z,0.00
2016-09-10T03:32:50.664Z,0.00
2016-09-10T03:33:51.183Z,0.00
2016-09-10T03:34:51.704Z,0.00
2016-09-10T03:35:53.132Z,0.00
2016-09-10T03:36:52.889Z,0.00
2016-09-10T03:37:53.249Z,0.00
2016-09-10T03:38:53.760Z,0.00
2016-09-10T03:39:54.424Z,0.00
2016-09-10T03:40:54.792Z,0.00
2016-09-10T03:41:55.453Z,0.00
2016-09-10T03:42:55.820Z,0.00
2016-09-10T03:43:56.339Z,0.00
2016-09-10T03:44:56.845Z,0.00
2016-09-10T03:45:57.365Z,0.00
2016-09-10T03:46:57.873Z,0.00
2016-09-10T03:47:58.538Z,0.00
2016-09-10T03:48:59.051Z,0.00
2016-09-10T03:49:59.576Z,0.00
2016-09-10T03:50:59.936Z,0.00
2016-09-10T03:52:00.471Z,0.00
2016-09-10T03:53:00.959Z,0.00
2016-09-10T03:54:01.509Z,0.00
2016-09-10T03:55:02.722Z,0.00
2016-09-10T03:56:02.538Z,0.00
2016-09-10T03:57:03.530Z,0.00
2016-09-10T03:58:03.579Z,0.00
2016-09-10T03:59:04.071Z,0.00
2016-09-10T04:00:04.686Z,0.00
2016-09-10T04:01:05.113Z,0.00
2016-09-10T04:02:05.594Z,0.00
2016-09-10T04:03:06.132Z,0.00
2016-09-10T04:04:06.636Z,0.00
2016-09-10T04:05:07.138Z,0.00
2016-09-10T04:06:07.670Z,0.00
2016-09-10T04:07:08.168Z,0.00
2016-09-10T04:08:09.425Z,0.00
2016-09-10T04:09:09.376Z,0.00
2016-09-10T04:10:09.719Z,0.00
2016-09-10T04:11:10.238Z,0.00
2016-09-10T04:12:10.759Z,0.00
2016-09-10T04:13:11.422Z,0.00
2016-09-10T04:14:11.788Z,0.00
2016-09-10T04:15:12.296Z,0.00
2016-09-10T04:16:12.810Z,0.00
2016-09-10T04:17:13.334Z,0.00
2016-09-10T04:18:14.017Z,0.00
2016-09-10T04:19:14.654Z,0.00
2016-09-10T04:20:14.870Z,0.00
2016-09-10T04:21:15.381Z,0.00
2016-09-10T04:22:15.912Z,0.00
2016-09-10T04:23:16.617Z,0.00
2016-09-10T04:24:16.924Z,0.00
2016-09-10T04:25:17.458Z,0.00
2016-09-10T04:26:17.982Z,0.00
2016-09-10T04:27:18.484Z,0.00
2016-09-10T04:28:18.984Z,0.00
2016-09-10T04:29:19.495Z,0.00
2016-09-10T04:30:20.764Z,0.00
2016-09-10T04:31:20.525Z,0.00
2016-09-10T04:32:21.047Z,0.00
2016-09-10T04:33:21.559Z,0.00
2016-09-10T04:34:22.225Z,0.00
2016-09-10T04:35:22.622Z,0.00
2016-09-10T04:36:23.253Z,0.00
2016-09-10T04:37:23.619Z,0.00
2016-09-10T04:38:24.243Z,0.00
2016-09-10T04:39:24.811Z,0.00
2016-09-10T04:40:25.171Z,0.00
2016-09-10T04:41:25.824Z,0.00
2016-09-10T04:42:26.192Z,0.00
2016-09-10T04:43:26.698Z,0.00
2016-09-10T04:44:27.217Z,0.00
2016-09-10T04:45:27.743Z,0.00
2016-09-10T04:46:28.255Z,0.00
2016-09-10T04:47:28.922Z,0.00
2016-09-10T04:48:29.289Z,0.00
2016-09-10T04:49:29.806Z,0.00
2016-09-10T04:50:30.661Z,0.00
2016-09-10T04:51:30.860Z,0.00
2016-09-10T04:52:31.349Z,0.00
2016-09-10T04:53:32.018Z,0.00
2016-09-10T04:54:32.375Z,0.00
2016-09-10T04:55:32.927Z,0.00
2016-09-10T04:56:33.419Z,0.00
2016-09-10T04:57:33.927Z,0.00
2016-09-10T04:58:34.583Z,0.00
2016-09-10T04:59:35.103Z,0.00
2016-09-10T05:00:35.462Z,0.00
2016-09-10T05:01:36.128Z,0.00
2016-09-10T05:02:36.496Z,0.00
2016-09-10T05:03:37.005Z,1.00
2016-09-10T05:04:37.547Z,1.00
2016-09-10T05:05:38.036Z,1.00
2016-09-10T05:06:38.563Z,1.00
2016-09-10T05:07:39.224Z,1.00
2016-09-10T05:08:39.579Z,1.00
2016-09-10T05:09:40.155Z,1.00
2016-09-10T05:10:40.612Z,1.00
2016-09-10T05:11:41.123Z,1.00
2016-09-10T05:12:41.669Z,1.00
2016-09-10T05:13:42.152Z,1.00
2016-09-10T05:14:42.997Z,1.00
2016-09-10T05:15:44.985Z,1.00
2016-09-10T05:16:43.693Z,2.00
2016-09-10T05:17:44.512Z,2.00
2016-09-10T05:18:44.726Z,2.00
2016-09-10T05:19:45.384Z,2.00
2016-09-10T05:20:45.989Z,2.00
2016-09-10T05:21:46.414Z,2.00
2016-09-10T05:22:46.956Z,2.00
2016-09-10T05:23:47.310Z,2.00
2016-09-10T05:24:47.822Z,2.00
2016-09-10T05:25:48.490Z,2.00
2016-09-10T05:26:49.008Z,2.00
2016-09-10T05:27:49.373Z,3.00
2016-09-10T05:28:49.888Z,3.00
2016-09-10T05:29:50.552Z,3.00
2016-09-10T05:30:50.924Z,3.00
2016-09-10T05:31:51.584Z,3.00
2016-09-10T05:32:51.965Z,3.00
2016-09-10T05:33:52.467Z,3.00
2016-09-10T05:34:52.979Z,3.00
2016-09-10T05:35:53.645Z,3.00
2016-09-10T05:36:54.047Z,4.00
2016-09-10T05:37:54.517Z,4.00
2016-09-10T05:38:55.035Z,4.00
2016-09-10T05:39:55.555Z,4.00
2016-09-10T05:40:56.066Z,4.00
2016-09-10T05:41:56.577Z,4.00
2016-09-10T05:42:57.092Z,4.00
2016-09-10T05:43:57.605Z,4.00
2016-09-10T05:44:58.271Z,4.00
2016-09-10T05:46:01.368Z,4.00
2016-09-10T05:46:59.150Z,4.00
2016-09-10T05:47:59.663Z,5.00
2016-09-10T05:49:00.207Z,5.00
2016-09-10T05:50:00.717Z,5.00
2016-09-10T05:51:01.347Z,5.00
2016-09-10T05:52:01.744Z,5.00
2016-09-10T05:53:02.242Z,5.00
2016-09-10T05:54:02.767Z,5.00
2016-09-10T05:55:04.016Z,5.00
2016-09-10T05:56:03.934Z,5.00
2016-09-10T05:57:04.296Z,5.00
2016-09-10T05:58:04.846Z,5.00
2016-09-10T05:59:05.328Z,6.00
2016-09-10T06:00:06.016Z,6.00
2016-09-10T06:01:06.391Z,6.00
2016-09-10T06:02:07.146Z,6.00
2016-09-10T06:03:07.405Z,6.00
2016-09-10T06:04:08.969Z,6.00
2016-09-10T06:05:08.446Z,6.00
2016-09-10T06:06:09.111Z,6.00
2016-09-10T06:07:09.467Z,7.00
2016-09-10T06:08:09.998Z,7.00
2016-09-10T06:09:10.644Z,7.00
2016-09-10T06:10:11.758Z,8.00
2016-09-10T06:11:11.613Z,9.00
2016-09-10T06:12:12.033Z,9.00
2016-09-10T06:13:12.543Z,10.00
2016-09-10T06:14:13.060Z,10.00
2016-09-10T06:15:13.602Z,10.00
2016-09-10T06:16:14.086Z,10.00
2016-09-10T06:17:14.754Z,10.00
2016-09-10T06:18:15.271Z,10.00
2016-09-10T06:19:15.635Z,10.00
2016-09-10T06:20:16.147Z,10.00
2016-09-10T06:21:16.807Z,11.00
2016-09-10T06:22:17.185Z,11.00
2016-09-10T06:23:17.706Z,10.00
2016-09-10T06:24:18.207Z,9.00
2016-09-10T06:25:18.995Z,9.00
2016-09-10T06:26:19.231Z,9.00
2016-09-10T06:27:19.759Z,9.00
2016-09-10T06:28:20.286Z,9.00
2016-09-10T06:29:21.105Z,10.00
2016-09-10T06:30:21.716Z,10.00
2016-09-10T06:31:21.965Z,10.00
2016-09-10T06:32:22.327Z,11.00
2016-09-10T06:33:22.834Z,13.00
2016-09-10T06:34:23.504Z,13.00
2016-09-10T06:35:24.021Z,14.00
2016-09-10T06:36:24.558Z,15.00
2016-09-10T06:37:24.930Z,15.00
2016-09-10T06:38:25.574Z,16.00
2016-09-10T06:39:25.943Z,16.00
2016-09-10T06:40:26.595Z,17.00
2016-09-10T06:41:26.968Z,17.00
2016-09-10T06:42:27.480Z,17.00
2016-09-10T06:43:28.014Z,18.00
2016-09-10T06:44:28.512Z,18.00
2016-09-10T06:45:29.031Z,18.00
2016-09-10T06:46:29.552Z,18.00
2016-09-10T06:47:30.218Z,17.00
2016-09-10T06:48:30.730Z,18.00
2016-09-10T06:49:31.113Z,18.00
2016-09-10T06:50:32.052Z,18.00
2016-09-10T06:51:32.135Z,19.00
2016-09-10T06:52:32.781Z,19.00
2016-09-10T06:53:33.294Z,19.00
2016-09-10T06:54:33.659Z,20.00
2016-09-10T06:55:34.175Z,20.00
2016-09-10T06:56:34.694Z,21.00
2016-09-10T06:57:35.225Z,21.00
2016-09-10T06:58:35.823Z,21.00
2016-09-10T06:59:36.260Z,22.00
2016-09-10T07:00:36.899Z,22.00
2016-09-10T07:01:37.268Z,22.00
2016-09-10T07:02:37.779Z,22.00
2016-09-10T07:03:38.298Z,22.00
2016-09-10T07:04:38.809Z,23.00
2016-09-10T07:05:39.488Z,23.00
2016-09-10T07:06:40.145Z,23.00
2016-09-10T07:07:40.371Z,23.00
2016-09-10T07:08:40.876Z,24.00
2016-09-10T07:09:41.386Z,24.00
2016-09-10T07:10:42.051Z,24.00
2016-09-10T07:11:42.570Z,24.00
2016-09-10T07:12:42.941Z,24.00
2016-09-10T07:13:43.640Z,24.00
2016-09-10T07:14:43.978Z,24.00
2016-09-10T07:15:44.500Z,24.00
2016-09-10T07:16:45.190Z,24.00
2016-09-10T07:17:45.574Z,25.00
2016-09-10T07:18:46.186Z,25.00
2016-09-10T07:19:46.567Z,25.00
2016-09-10T07:20:47.070Z,25.00
2016-09-10T07:21:47.576Z,25.00
2016-09-10T07:22:48.106Z,25.00
2016-09-10T07:23:48.611Z,25.00
2016-09-10T07:24:49.149Z,26.00
2016-09-10T07:25:49.634Z,26.00
2016-09-10T07:26:50.170Z,26.00
2016-09-10T07:27:50.655Z,26.00
2016-09-10T07:28:51.170Z,26.00
2016-09-10T07:29:51.685Z,27.00
2016-09-10T07:30:52.211Z,27.00
2016-09-10T07:31:52.725Z,27.00
2016-09-10T07:32:53.230Z,27.00
2016-09-10T07:33:53.893Z,27.00
2016-09-10T07:34:54.253Z,27.00
2016-09-10T07:35:54.918Z,27.00
2016-09-10T07:36:55.308Z,28.00
2016-09-10T07:37:55.797Z,28.00
2016-09-10T07:38:56.343Z,28.00
2016-09-10T07:39:56.990Z,28.00
2016-09-10T07:40:59.143Z,28.00
2016-09-10T07:41:57.849Z,29.00
2016-09-10T07:42:58.369Z,29.00
2016-09-10T07:43:58.880Z,29.00
2016-09-10T07:44:59.544Z,29.00
2016-09-10T07:46:00.091Z,29.00
2016-09-10T07:47:04.204Z,29.00
2016-09-10T07:48:01.245Z,29.00
2016-09-10T07:49:01.454Z,29.00
2016-09-10T07:50:02.002Z,29.00
2016-09-10T07:51:02.642Z,29.00
2016-09-10T07:52:03.009Z,29.00
2016-09-10T07:53:03.690Z,30.00
2016-09-10T07:54:04.318Z,30.00
2016-09-10T07:55:04.547Z,30.00
2016-09-10T07:56:05.075Z,30.00
2016-09-10T07:57:05.590Z,30.00
2016-09-10T07:58:06.092Z,30.00
2016-09-10T07:59:06.595Z,30.00
2016-09-10T08:00:07.303Z,30.00
2016-09-10T08:01:08.370Z,31.00
2016-09-10T08:02:08.284Z,31.00
2016-09-10T08:03:08.670Z,31.00
2016-09-10T08:04:09.235Z,31.00
2016-09-10T08:05:09.676Z,31.00
2016-09-10T08:06:10.359Z,31.00
2016-09-10T08:07:10.713Z,31.00
2016-09-10T08:08:11.228Z,31.00
2016-09-10T08:09:11.768Z,31.00
2016-09-10T08:10:12.249Z,31.00
2016-09-10T08:11:14.473Z,31.00
2016-09-10T08:12:13.282Z,31.00
2016-09-10T08:13:13.790Z,31.00
2016-09-10T08:14:14.457Z,31.00
2016-09-10T08:15:15.286Z,32.00
2016-09-10T08:16:15.508Z,32.00
2016-09-10T08:17:15.844Z,32.00
2016-09-10T08:18:16.545Z,32.00
2016-09-10T08:19:16.875Z,32.00
2016-09-10T08:20:17.384Z,32.00
2016-09-10T08:21:17.893Z,32.00
2016-09-10T08:22:18.562Z,32.00
2016-09-10T08:23:18.923Z,32.00
2016-09-10T08:24:19.451Z,32.00
2016-09-10T08:25:20.147Z,32.00
2016-09-10T08:26:20.626Z,33.00
2016-09-10T08:27:20.991Z,33.00
2016-09-10T08:28:21.506Z,33.00
2016-09-10T08:29:22.053Z,33.00
2016-09-10T08:30:22.677Z,34.00
2016-09-10T08:31:23.042Z,34.00
2016-09-10T08:32:23.599Z,34.00
2016-09-10T08:33:24.199Z,34.00
2016-09-10T08:34:24.581Z,34.00
2016-09-10T08:35:25.104Z,34.00
2016-09-10T08:36:25.659Z,35.00
2016-09-10T08:37:26.136Z,35.00
2016-09-10T08:38:26.639Z,35.00
2016-09-10T08:39:27.152Z,35.00
2016-09-10T08:40:27.667Z,35.00
2016-09-10T08:41:28.336Z,35.00
2016-09-10T08:42:28.696Z,35.00
2016-09-10T08:43:29.219Z,36.00
2016-09-10T08:44:29.883Z,36.00
2016-09-10T08:45:30.439Z,36.00
2016-09-10T08:46:30.782Z,36.00
2016-09-10T08:47:31.419Z,36.00
2016-09-10T08:48:31.794Z,36.00
2016-09-10T08:49:32.445Z,36.00
2016-09-10T08:50:32.963Z,36.00
2016-09-10T08:51:33.631Z,36.00
2016-09-10T08:52:33.989Z,36.00
2016-09-10T08:53:34.354Z,37.00
2016-09-10T08:54:35.018Z,37.00
2016-09-10T08:55:35.405Z,36.00
2016-09-10T08:56:35.903Z,37.00
2016-09-10T08:57:36.559Z,37.00
2016-09-10T08:58:36.956Z,38.00
2016-09-10T08:59:37.744Z,37.00
2016-09-10T09:00:38.111Z,38.00
2016-09-10T09:01:38.474Z,38.00
2016-09-10T09:02:39.002Z,38.00
2016-09-10T09:03:39.534Z,38.00
2016-09-10T09:04:40.360Z,38.00
2016-09-10T09:05:40.586Z,38.00
2016-09-10T09:06:41.084Z,38.00
2016-09-10T09:07:41.582Z,39.00
2016-09-10T09:08:42.118Z,39.00
2016-09-10T09:09:42.758Z,39.00
2016-09-10T09:10:43.279Z,39.00
2016-09-10T09:11:43.644Z,39.00
2016-09-10T09:12:44.461Z,39.00
2016-09-10T09:13:44.676Z,39.00
2016-09-10T09:14:45.341Z,39.00
2016-09-10T09:15:45.845Z,39.00
2016-09-10T09:16:46.220Z,39.00
2016-09-10T09:17:47.025Z,39.00
2016-09-10T09:18:47.235Z,39.00
2016-09-10T09:19:48.808Z,39.00
2016-09-10T09:20:48.417Z,39.00
2016-09-10T09:21:48.786Z,39.00
2016-09-10T09:22:49.294Z,39.00
2016-09-10T09:23:49.835Z,40.00
2016-09-10T09:24:50.325Z,40.00
2016-09-10T09:25:50.987Z,39.00
2016-09-10T09:26:51.358Z,39.00
2016-09-10T09:27:51.866Z,39.00
2016-09-10T09:28:52.388Z,39.00
2016-09-10T09:29:52.899Z,40.00
2016-09-10T09:30:53.418Z,40.00
2016-09-10T09:31:54.077Z,40.00
2016-09-10T09:32:54.445Z,40.00
2016-09-10T09:33:54.957Z,41.00
2016-09-10T09:34:55.665Z,41.00
2016-09-10T09:35:55.995Z,41.00
2016-09-10T09:36:56.513Z,41.00
2016-09-10T09:37:57.033Z,41.00
2016-09-10T09:38:57.548Z,41.00
2016-09-10T09:39:58.108Z,41.00
2016-09-10T09:40:58.577Z,41.00
2016-09-10T09:41:59.096Z,41.00
2016-09-10T09:43:00.204Z,41.00
2016-09-10T09:44:00.290Z,41.00
2016-09-10T09:45:00.631Z,41.00
2016-09-10T09:46:01.255Z,41.00
2016-09-10T09:47:02.292Z,41.00
2016-09-10T09:48:02.192Z,41.00
2016-09-10T09:49:02.838Z,41.00
2016-09-10T09:50:03.209Z,42.00
2016-09-10T09:51:03.720Z,42.00
2016-09-10T09:52:04.235Z,42.00
2016-09-10T09:53:04.867Z,42.00
2016-09-10T09:54:05.284Z,42.00
2016-09-10T09:55:05.773Z,42.00
2016-09-10T09:56:06.432Z,42.00
2016-09-10T09:57:06.932Z,42.00
2016-09-10T09:58:07.386Z,42.00
2016-09-10T09:59:07.830Z,42.00
2016-09-10T10:00:08.354Z,42.00
2016-09-10T10:01:09.006Z,42.00
2016-09-10T10:02:09.367Z,42.00
2016-09-10T10:03:10.032Z,42.00
2016-09-10T10:04:10.398Z,42.00
2016-09-10T10:05:11.511Z,42.00
2016-09-10T10:06:11.754Z,42.00
2016-09-10T10:07:11.951Z,42.00
2016-09-10T10:08:12.628Z,42.00
2016-09-10T10:09:13.121Z,42.00
2016-09-10T10:10:13.485Z,42.00
2016-09-10T10:11:13.997Z,42.00
2016-09-10T10:12:14.514Z,42.00
2016-09-10T10:13:15.027Z,42.00
2016-09-10T10:14:15.711Z,42.00
2016-09-10T10:15:16.516Z,43.00
2016-09-10T10:16:17.331Z,43.00
2016-09-10T10:17:17.100Z,43.00
2016-09-10T10:18:18.087Z,43.00
2016-09-10T10:19:18.155Z,43.00
2016-09-10T10:20:18.938Z,43.00
2016-09-10T10:21:19.156Z,43.00
2016-09-10T10:22:19.674Z,43.00
2016-09-10T10:23:20.185Z,43.00
2016-09-10T10:24:20.705Z,43.00
2016-09-10T10:25:21.512Z,43.00
2016-09-10T10:26:21.880Z,43.00
2016-09-10T10:27:22.247Z,43.00
2016-09-10T10:28:22.903Z,43.00
2016-09-10T10:29:23.266Z,43.00
2016-09-10T10:30:23.811Z,43.00
2016-09-10T10:31:24.314Z,43.00
2016-09-10T10:32:24.958Z,43.00
2016-09-10T10:33:25.474Z,44.00
2016-09-10T10:34:25.837Z,44.00
2016-09-10T10:35:26.350Z,44.00
2016-09-10T10:36:27.039Z,44.00
2016-09-10T10:37:27.399Z,44.00
2016-09-10T10:38:28.806Z,44.00
2016-09-10T10:39:28.407Z,44.00
2016-09-10T10:40:28.925Z,44.00
2016-09-10T10:41:29.444Z,44.00
2016-09-10T10:42:29.951Z,44.00
2016-09-10T10:43:30.467Z,44.00
2016-09-10T10:44:30.981Z,44.00
2016-09-10T10:45:31.653Z,44.00
2016-09-10T10:46:32.159Z,44.00
2016-09-10T10:47:32.526Z,44.00
2016-09-10T10:48:33.077Z,44.00
2016-09-10T10:49:33.560Z,44.00
2016-09-10T10:50:34.380Z,44.00
2016-09-10T10:51:34.591Z,44.00
2016-09-10T10:52:35.114Z,45.00
2016-09-10T10:53:35.628Z,44.00
2016-09-10T10:54:36.143Z,44.00
2016-09-10T10:55:36.965Z,44.00
2016-09-10T10:56:37.337Z,44.00
2016-09-10T10:57:37.728Z,44.00
2016-09-10T10:58:38.199Z,44.00
2016-09-10T10:59:38.713Z,45.00
2016-09-10T11:00:39.240Z,45.00
2016-09-10T11:01:39.745Z,45.00
2016-09-10T11:02:40.402Z,45.00
2016-09-10T11:03:40.924Z,45.00
2016-09-10T11:04:41.446Z,45.00
2016-09-10T11:05:41.949Z,45.00
2016-09-10T11:06:42.313Z,45.00
2016-09-10T11:07:42.982Z,45.00
2016-09-10T11:08:43.373Z,45.00
2016-09-10T11:09:43.855Z,46.00
2016-09-10T11:10:44.370Z,46.00
2016-09-10T11:11:45.035Z,46.00
2016-09-10T11:12:45.400Z,46.00
2016-09-10T11:13:45.931Z,46.00
2016-09-10T11:14:46.426Z,46.00
2016-09-10T11:15:46.944Z,47.00
2016-09-10T11:16:47.613Z,47.00
2016-09-10T11:17:48.150Z,47.00
2016-09-10T11:18:48.512Z,47.00
2016-09-10T11:19:49.020Z,48.00
2016-09-10T11:20:49.528Z,48.00
2016-09-10T11:21:50.177Z,48.00
2016-09-10T11:22:50.691Z,48.00
2016-09-10T11:23:51.051Z,48.00
2016-09-10T11:24:51.717Z,48.00
2016-09-10T11:25:52.238Z,48.00
2016-09-10T11:26:52.598Z,49.00
2016-09-10T11:27:53.119Z,49.00
2016-09-10T11:28:53.636Z,49.00
2016-09-10T11:29:54.163Z,49.00
2016-09-10T11:30:54.831Z,49.00
2016-09-10T11:31:55.326Z,49.00
2016-09-10T11:32:55.988Z,50.00
2016-09-10T11:33:56.358Z,50.00
2016-09-10T11:34:56.718Z,50.00
2016-09-10T11:35:57.400Z,50.00
2016-09-10T11:36:57.757Z,51.00
2016-09-10T11:37:58.476Z,51.00
2016-09-10T11:38:59.230Z,51.00
2016-09-10T11:39:59.303Z,51.00
2016-09-10T11:40:59.808Z,52.00
2016-09-10T11:42:00.647Z,52.00
2016-09-10T11:43:00.902Z,52.00
2016-09-10T11:44:01.356Z,53.00
2016-09-10T11:45:02.265Z,53.00
2016-09-10T11:46:02.384Z,53.00
2016-09-10T11:47:03.090Z,53.00
2016-09-10T11:48:03.433Z,53.00
2016-09-10T11:49:03.930Z,53.00
2016-09-10T11:50:04.659Z,53.00
2016-09-10T11:51:05.113Z,53.00
2016-09-10T11:52:05.466Z,54.00
2016-09-10T11:53:06.432Z,54.00
2016-09-10T11:54:06.495Z,54.00
2016-09-10T11:55:07.163Z,55.00
2016-09-10T11:56:07.710Z,55.00
2016-09-10T11:57:08.069Z,55.00
2016-09-10T11:58:08.560Z,55.00
2016-09-10T11:59:09.069Z,55.00
2016-09-10T12:00:09.733Z,56.00
2016-09-10T12:01:10.246Z,56.00
2016-09-10T12:02:10.614Z,56.00
2016-09-10T12:03:11.283Z,56.00
2016-09-10T12:04:11.647Z,57.00
2016-09-10T12:05:12.317Z,57.00
2016-09-10T12:06:12.708Z,57.00
2016-09-10T12:07:13.350Z,57.00
2016-09-10T12:08:13.721Z,57.00
2016-09-10T12:09:14.230Z,58.00
2016-09-10T12:10:15.792Z,58.00
2016-09-10T12:11:15.263Z,59.00
2016-09-10T12:12:15.928Z,58.00
2016-09-10T12:13:16.437Z,59.00
2016-09-10T12:14:16.804Z,59.00
2016-09-10T12:15:17.313Z,60.00
2016-09-10T12:16:19.328Z,60.00
2016-09-10T12:17:18.375Z,61.00
2016-09-10T12:18:19.316Z,61.00
2016-09-10T12:19:19.377Z,61.00
2016-09-10T12:20:19.906Z,61.00
2016-09-10T12:21:20.402Z,61.00
2016-09-10T12:22:20.924Z,61.00
2016-09-10T12:23:21.734Z,62.00
2016-09-10T12:24:22.247Z,62.00
2016-09-10T12:25:22.611Z,62.00
2016-09-10T12:26:23.013Z,62.00
2016-09-10T12:27:23.640Z,62.00
2016-09-10T12:28:24.000Z,62.00
2016-09-10T12:29:24.513Z,63.00
2016-09-10T12:30:25.186Z,63.00
2016-09-10T12:31:25.551Z,64.00
2016-09-10T12:32:26.054Z,64.00
2016-09-10T12:33:26.565Z,63.00
2016-09-10T12:34:27.379Z,63.00
2016-09-10T12:35:27.735Z,63.00
2016-09-10T12:36:28.115Z,63.00
2016-09-10T12:37:28.770Z,64.00
2016-09-10T12:38:29.127Z,65.00
2016-09-10T12:39:29.641Z,65.00
2016-09-10T12:40:30.171Z,65.00
2016-09-10T12:41:30.683Z,66.00
2016-09-10T12:42:31.202Z,66.00
2016-09-10T12:43:31.873Z,67.00
2016-09-10T12:44:32.387Z,67.00
2016-09-10T12:45:32.760Z,67.00
2016-09-10T12:46:33.257Z,67.00
2016-09-10T12:47:33.769Z,67.00
2016-09-10T12:48:34.289Z,67.00
2016-09-10T12:49:34.799Z,67.00
2016-09-10T12:50:35.462Z,66.00
2016-09-10T12:51:35.827Z,66.00
2016-09-10T12:52:36.340Z,66.00
2016-09-10T12:53:36.856Z,66.00
2016-09-10T12:54:37.368Z,67.00
2016-09-10T12:55:37.884Z,68.00
2016-09-10T12:56:38.399Z,68.00
2016-09-10T12:57:38.946Z,68.00
2016-09-10T12:58:39.446Z,69.00
2016-09-10T12:59:40.394Z,69.00
2016-09-10T13:00:40.623Z,70.00
2016-09-10T13:01:40.975Z,70.00
2016-09-10T13:02:41.500Z,68.00
2016-09-10T13:03:42.152Z,70.00
2016-09-10T13:04:42.824Z,70.00
2016-09-10T13:05:44.829Z,70.00
2016-09-10T13:06:43.542Z,70.00
2016-09-10T13:07:44.056Z,71.00
2016-09-10T13:08:44.721Z,71.00
2016-09-10T13:09:45.168Z,73.00
2016-09-10T13:10:45.624Z,72.00